Time;durP1;ratioP1;P1;durP2;ratioP2;P2;SDS_P1;SDS_P2;PMS_P1;PMS_P2;Temp;Humidity;BMP_temperature;BMP_pressure;BME280_temperature;BME280_humidity;BME280_pressure;Samples;Min_cycle;Max_cycle;Signal;HPM_P1;HPM_P2
2021/05/28 00:00:34;;;;;;;11.10;5.63;;;10.30;92.60;;;;;;5054116;28;20053;-83
2021/05/28 00:02:59;;;;;;;8.77;4.68;;;10.40;92.70;;;;;;5052692;28;20084;-84
2021/05/28 00:05:25;;;;;;;9.60;5.53;;;10.30;92.70;;;;;;5053982;28;20564;-83
2021/05/28 00:07:51;;;;;;;10.18;5.70;;;10.30;92.90;;;;;;5054041;28;20041;-83
2021/05/28 00:10:16;;;;;;;13.32;6.07;;;10.30;92.80;;;;;;5052800;28;20052;-83
2021/05/28 00:12:42;;;;;;;11.13;5.85;;;10.30;92.90;;;;;;5053193;28;20049;-83
2021/05/28 00:15:10;;;;;;;12.10;5.72;;;10.30;92.70;;;;;;5053058;28;20049;-83
2021/05/28 00:17:36;;;;;;;12.35;5.70;;;10.30;92.80;;;;;;5052834;28;20154;-83
2021/05/28 00:20:05;;;;;;;11.88;5.97;;;10.30;92.70;;;;;;5053124;28;20048;-82
2021/05/28 00:22:38;;;;;;;11.48;5.95;;;10.20;92.70;;;;;;5053216;28;20055;-83
2021/05/28 00:25:04;;;;;;;15.65;7.03;;;10.20;92.80;;;;;;5052469;28;20093;-84
2021/05/28 00:27:30;;;;;;;17.35;6.35;;;10.20;92.80;;;;;;5053432;28;20493;-83
2021/05/28 00:29:57;;;;;;;12.82;6.18;;;10.20;92.90;;;;;;5050622;28;20118;-83
2021/05/28 00:32:23;;;;;;;10.68;5.45;;;10.20;93.00;;;;;;5052130;28;20049;-83
2021/05/28 00:34:50;;;;;;;11.82;5.32;;;10.20;93.00;;;;;;5053099;28;20052;-83
2021/05/28 00:37:17;;;;;;;9.93;5.78;;;10.20;92.90;;;;;;5052088;28;20059;-84
2021/05/28 00:39:43;;;;;;;11.20;6.00;;;10.20;92.90;;;;;;5053103;28;20573;-83
2021/05/28 00:42:09;;;;;;;10.20;5.60;;;10.20;92.90;;;;;;5052369;28;20496;-84
2021/05/28 00:44:38;;;;;;;11.63;5.50;;;10.20;92.90;;;;;;5051919;28;20040;-83
2021/05/28 00:47:04;;;;;;;12.32;5.88;;;10.20;92.90;;;;;;5052461;28;20087;-84
2021/05/28 00:49:30;;;;;;;11.90;5.82;;;10.20;93.00;;;;;;5052593;28;20045;-83
2021/05/28 00:51:56;;;;;;;12.90;6.63;;;10.20;92.90;;;;;;5051616;28;20053;-84
2021/05/28 00:54:22;;;;;;;12.93;6.50;;;10.20;93.00;;;;;;5052618;28;20052;-83
2021/05/28 00:56:48;;;;;;;9.95;5.85;;;10.20;93.10;;;;;;5052834;28;20056;-83
2021/05/28 00:59:15;;;;;;;10.68;5.72;;;10.20;93.10;;;;;;5051668;28;20048;-83
2021/05/28 01:01:41;;;;;;;11.23;6.03;;;10.20;93.10;;;;;;5053039;28;20055;-83
2021/05/28 01:04:07;;;;;;;10.70;6.05;;;10.20;93.10;;;;;;5052215;28;20049;-84
2021/05/28 01:06:33;;;;;;;14.73;7.93;;;10.20;93.10;;;;;;5052019;28;20132;-83
2021/05/28 01:08:58;;;;;;;12.27;6.00;;;10.20;93.20;;;;;;5052287;28;20041;-83
2021/05/28 01:11:24;;;;;;;12.57;6.18;;;10.20;93.00;;;;;;5052858;28;20055;-83
2021/05/28 01:13:51;;;;;;;11.63;7.07;;;10.20;93.00;;;;;;5051912;28;20099;-83
2021/05/28 01:16:18;;;;;;;14.25;7.28;;;10.20;93.10;;;;;;5052700;28;20056;-83
2021/05/28 01:18:45;;;;;;;11.88;6.65;;;10.20;93.00;;;;;;5052252;28;20045;-83
2021/05/28 01:21:11;;;;;;;11.23;6.35;;;10.20;93.00;;;;;;5051348;28;20516;-83
2021/05/28 01:23:37;;;;;;;11.88;6.60;;;10.20;93.00;;;;;;5052277;28;20128;-84
2021/05/28 01:26:07;;;;;;;14.77;6.95;;;10.20;93.00;;;;;;5051650;28;20079;-83
2021/05/28 01:28:33;;;;;;;11.82;6.55;;;10.20;92.90;;;;;;5051715;28;20481;-84
2021/05/28 01:30:59;;;;;;;13.88;6.45;;;10.10;93.10;;;;;;5052153;28;20099;-84
2021/05/28 01:33:26;;;;;;;9.65;5.85;;;10.20;93.00;;;;;;5052318;28;20052;-84
2021/05/28 01:35:54;;;;;;;12.50;6.68;;;10.20;93.00;;;;;;5052088;28;20053;-84
2021/05/28 01:38:20;;;;;;;14.77;6.25;;;10.10;92.80;;;;;;5052098;28;20432;-83
2021/05/28 01:40:46;;;;;;;12.95;6.57;;;10.10;92.80;;;;;;5051178;28;20064;-84
2021/05/28 01:43:12;;;;;;;12.65;6.70;;;10.10;92.90;;;;;;5052179;28;20048;-83
2021/05/28 01:45:37;;;;;;;12.23;6.00;;;10.10;92.90;;;;;;5052325;28;20508;-84
2021/05/28 01:48:03;;;;;;;13.07;6.38;;;10.10;92.90;;;;;;5051346;28;20053;-83
2021/05/28 01:50:29;;;;;;;12.80;6.07;;;10.10;92.90;;;;;;5052266;28;20083;-84
2021/05/28 01:52:55;;;;;;;12.55;6.30;;;10.10;92.80;;;;;;5051813;28;20053;-84
2021/05/28 01:55:21;;;;;;;11.85;5.88;;;10.10;92.80;;;;;;5051281;28;20049;-84
2021/05/28 01:57:46;;;;;;;9.75;5.60;;;10.00;92.90;;;;;;5052134;28;20049;-84
2021/05/28 02:00:15;;;;;;;9.68;6.13;;;10.00;92.90;;;;;;5051735;28;20492;-84
2021/05/28 02:02:40;;;;;;;9.15;5.60;;;10.00;92.80;;;;;;5051038;28;20489;-84
2021/05/28 02:05:08;;;;;;;14.57;6.00;;;10.10;92.80;;;;;;5051832;28;20060;-84
2021/05/28 02:07:34;;;;;;;13.15;6.65;;;10.00;92.70;;;;;;5051925;28;20128;-84
2021/05/28 02:10:00;;;;;;;10.65;5.53;;;10.10;92.90;;;;;;5051049;28;20053;-84
2021/05/28 02:12:26;;;;;;;13.95;6.50;;;10.00;92.80;;;;;;5052256;28;20056;-83
2021/05/28 02:14:55;;;;;;;11.68;6.28;;;10.00;92.80;;;;;;5051883;28;20510;-84
2021/05/28 02:17:21;;;;;;;12.02;6.13;;;10.00;92.90;;;;;;5051158;28;20564;-84
2021/05/28 02:19:47;;;;;;;13.77;6.05;;;10.00;93.00;;;;;;5051567;28;20129;-83
2021/05/28 02:22:13;;;;;;;10.63;6.15;;;10.00;93.10;;;;;;5051595;28;20049;-85
2021/05/28 02:24:39;;;;;;;10.85;5.75;;;10.00;93.20;;;;;;5050981;28;20110;-83
2021/05/28 02:27:05;;;;;;;11.85;5.90;;;10.00;93.00;;;;;;5051796;28;20053;-83
2021/05/28 02:29:31;;;;;;;12.35;6.25;;;10.00;92.90;;;;;;5051949;28;20492;-84
2021/05/28 02:31:56;;;;;;;12.02;6.10;;;10.00;93.00;;;;;;5050799;28;20052;-82
2021/05/28 02:34:22;;;;;;;9.88;5.65;;;10.00;93.00;;;;;;5051305;28;20479;-82
2021/05/28 02:36:48;;;;;;;9.55;4.88;;;10.00;93.00;;;;;;5052583;28;20114;-83
2021/05/28 02:39:13;;;;;;;14.15;5.70;;;10.00;93.00;;;;;;5055241;28;20127;-83
2021/05/28 02:41:39;;;;;;;12.23;5.45;;;10.00;93.00;;;;;;5055605;28;20051;-82
2021/05/28 02:44:05;;;;;;;13.48;5.20;;;10.00;93.00;;;;;;5054144;28;20050;-82
2021/05/28 02:46:34;;;;;;;10.70;5.10;;;10.00;92.90;;;;;;5055305;28;20148;-83
2021/05/28 02:49:00;;;;;;;9.50;4.93;;;10.00;92.90;;;;;;5054975;28;20078;-84
2021/05/28 02:51:25;;;;;;;9.00;4.75;;;10.00;92.90;;;;;;5054770;28;20044;-83
2021/05/28 02:53:51;;;;;;;12.23;5.78;;;10.00;92.90;;;;;;5055064;28;20048;-83
2021/05/28 02:56:17;;;;;;;10.38;5.20;;;10.00;93.00;;;;;;5055231;28;20473;-83
2021/05/28 02:58:42;;;;;;;13.40;5.53;;;10.00;93.00;;;;;;5054168;28;20093;-83
2021/05/28 03:01:08;;;;;;;8.23;4.75;;;10.00;93.00;;;;;;5054731;28;20056;-83
2021/05/28 03:03:34;;;;;;;13.65;5.47;;;10.00;93.10;;;;;;5054697;28;20575;-84
2021/05/28 03:06:00;;;;;;;10.93;4.97;;;10.00;92.90;;;;;;5054115;28;20049;-83
2021/05/28 03:08:26;;;;;;;10.27;4.95;;;10.00;92.90;;;;;;5054995;28;20489;-83
2021/05/28 03:10:53;;;;;;;14.82;5.82;;;10.00;92.90;;;;;;5054485;28;20053;-83
2021/05/28 03:13:18;;;;;;;13.93;5.00;;;10.00;92.90;;;;;;5054094;28;20056;-83
2021/05/28 03:15:44;;;;;;;8.38;4.60;;;10.00;92.80;;;;;;5054678;28;20061;-84
2021/05/28 03:18:17;;;;;;;9.75;4.95;;;10.00;92.80;;;;;;5054215;28;20049;-83
2021/05/28 03:20:47;;;;;;;10.30;5.10;;;10.00;92.80;;;;;;5054178;28;20106;-83
2021/05/28 03:23:14;;;;;;;12.07;5.00;;;10.00;93.00;;;;;;5054389;28;20045;-84
2021/05/28 03:25:43;;;;;;;9.95;5.47;;;10.00;93.00;;;;;;5054555;28;20048;-83
2021/05/28 03:28:10;;;;;;;9.43;4.68;;;10.00;93.10;;;;;;5053504;28;20382;-83
2021/05/28 03:30:36;;;;;;;9.82;4.60;;;10.00;93.00;;;;;;5054405;28;20490;-83
2021/05/28 03:33:04;;;;;;;9.68;5.05;;;10.00;93.00;;;;;;5053485;28;20075;-84
2021/05/28 03:35:29;;;;;;;8.95;5.00;;;10.00;93.10;;;;;;5054064;28;20048;-84
2021/05/28 03:37:55;;;;;;;10.43;4.70;;;10.00;93.20;;;;;;5053879;28;20048;-83
2021/05/28 03:40:21;;;;;;;8.63;4.68;;;10.00;93.00;;;;;;5053779;28;20160;-83
2021/05/28 03:42:46;;;;;;;12.07;5.13;;;10.00;93.10;;;;;;5054377;28;20053;-83
2021/05/28 03:45:12;;;;;;;9.73;4.72;;;10.00;93.20;;;;;;5053923;28;20056;-84
2021/05/28 03:47:38;;;;;;;8.27;4.70;;;10.00;93.40;;;;;;5052658;28;20477;-83
2021/05/28 03:50:06;;;;;;;7.90;4.30;;;10.00;93.30;;;;;;5054128;28;20060;-84
2021/05/28 03:52:32;;;;;;;9.13;4.75;;;10.00;93.20;;;;;;5054032;28;20071;-83
2021/05/28 03:54:58;;;;;;;10.43;4.88;;;10.00;93.60;;;;;;5052702;28;20056;-83
2021/05/28 03:57:23;;;;;;;10.32;4.57;;;10.00;93.20;;;;;;5053967;28;20413;-83
2021/05/28 03:59:49;;;;;;;10.38;4.82;;;10.00;93.30;;;;;;5053672;28;20049;-83
2021/05/28 04:02:15;;;;;;;10.82;4.85;;;10.00;93.30;;;;;;5052709;28;20064;-83
2021/05/28 04:04:41;;;;;;;9.90;4.63;;;10.00;93.40;;;;;;5054099;28;20444;-83
2021/05/28 04:07:07;;;;;;;8.05;4.75;;;10.00;93.40;;;;;;5053633;28;20045;-83
2021/05/28 04:09:33;;;;;;;9.80;4.90;;;9.90;93.30;;;;;;5052675;28;20056;-83
2021/05/28 04:12:00;;;;;;;7.75;4.68;;;9.90;93.30;;;;;;5053531;28;20060;-83
2021/05/28 04:14:25;;;;;;;7.88;4.28;;;9.90;93.30;;;;;;5053534;28;20075;-83
2021/05/28 04:16:51;;;;;;;11.38;4.78;;;9.90;93.20;;;;;;5052801;28;20107;-84
2021/05/28 04:19:17;;;;;;;9.50;4.40;;;9.90;93.10;;;;;;5053691;28;20045;-83
2021/05/28 04:21:42;;;;;;;8.18;4.35;;;9.90;93.20;;;;;;5053724;28;20056;-83
2021/05/28 04:24:08;;;;;;;9.98;4.72;;;9.90;93.10;;;;;;5052412;28;20049;-83
2021/05/28 04:26:34;;;;;;;7.47;4.05;;;9.80;93.10;;;;;;5053302;28;20103;-83
2021/05/28 04:29:00;;;;;;;8.07;4.45;;;9.80;93.30;;;;;;5052985;28;20451;-83
2021/05/28 04:31:26;;;;;;;9.35;4.90;;;9.80;93.10;;;;;;5052768;28;20135;-84
2021/05/28 04:33:51;;;;;;;9.23;4.53;;;9.80;93.20;;;;;;5053171;28;20150;-84
2021/05/28 04:36:17;;;;;;;9.48;4.43;;;9.70;93.30;;;;;;5052584;28;20048;-84
2021/05/28 04:38:43;;;;;;;8.90;4.78;;;9.80;93.20;;;;;;5053201;28;20045;-84
2021/05/28 04:41:09;;;;;;;9.15;4.38;;;9.70;93.20;;;;;;5052736;28;20072;-84
2021/05/28 04:43:34;;;;;;;8.90;4.43;;;9.70;93.30;;;;;;5052418;28;20049;-84
2021/05/28 04:46:00;;;;;;;7.32;3.75;;;9.70;93.30;;;;;;5052777;28;20045;-84
2021/05/28 04:48:25;;;;;;;9.15;4.97;;;9.70;93.10;;;;;;5052953;28;20045;-84
2021/05/28 04:50:51;;;;;;;8.45;4.80;;;9.70;93.00;;;;;;5052215;28;20049;-84
2021/05/28 04:53:17;;;;;;;7.60;4.55;;;9.70;93.30;;;;;;5052942;28;20048;-84
2021/05/28 04:55:43;;;;;;;9.82;4.72;;;9.70;93.20;;;;;;5052770;28;20424;-84
2021/05/28 04:58:08;;;;;;;7.90;4.38;;;9.70;93.30;;;;;;5051649;28;20469;-84
2021/05/28 05:00:34;;;;;;;8.27;4.20;;;9.80;93.40;;;;;;5052721;28;20481;-84
2021/05/28 05:03:00;;;;;;;10.35;5.03;;;9.70;93.40;;;;;;5052548;28;20051;-84
2021/05/28 05:05:26;;;;;;;9.77;4.70;;;9.70;93.40;;;;;;5052125;28;20135;-84
2021/05/28 05:07:52;;;;;;;8.82;4.60;;;9.70;93.20;;;;;;5052502;28;20489;-84
2021/05/28 05:10:18;;;;;;;9.48;4.13;;;9.80;93.20;;;;;;5052827;28;20052;-84
2021/05/28 05:12:44;;;;;;;10.63;4.88;;;9.80;93.10;;;;;;5051726;28;20060;-84
2021/05/28 05:15:10;;;;;;;9.23;4.47;;;9.80;93.00;;;;;;5052413;28;20076;-84
2021/05/28 05:17:36;;;;;;;7.50;4.18;;;9.80;93.10;;;;;;5052273;28;20412;-84
2021/05/28 05:20:04;;;;;;;10.85;4.72;;;9.80;93.00;;;;;;5051551;28;20045;-84
2021/05/28 05:22:30;;;;;;;14.18;5.05;;;9.80;93.10;;;;;;5052572;28;20053;-84
2021/05/28 05:24:56;;;;;;;9.95;5.10;;;9.80;93.10;;;;;;5052223;28;20411;-84
2021/05/28 05:27:22;;;;;;;7.70;4.13;;;9.80;93.20;;;;;;5051697;28;20049;-84
2021/05/28 05:29:48;;;;;;;10.73;4.30;;;9.80;93.20;;;;;;5052594;28;20558;-84
2021/05/28 05:32:14;;;;;;;10.63;5.03;;;9.80;92.90;;;;;;5052305;28;20227;-84
2021/05/28 05:34:40;;;;;;;12.00;5.32;;;9.90;93.10;;;;;;5051658;28;20057;-84
2021/05/28 05:37:07;;;;;;;11.52;5.32;;;9.80;93.00;;;;;;5051580;28;20048;-84
2021/05/28 05:39:33;;;;;;;15.82;6.13;;;9.80;93.00;;;;;;5052194;28;20489;-84
2021/05/28 05:42:03;;;;;;;13.07;5.40;;;9.90;93.10;;;;;;5051471;28;20056;-84
2021/05/28 05:44:29;;;;;;;8.73;4.82;;;9.90;93.00;;;;;;5052413;28;20049;-84
2021/05/28 05:46:55;;;;;;;9.45;5.25;;;9.90;92.80;;;;;;5051081;28;20401;-83
2021/05/28 05:49:21;;;;;;;13.80;5.15;;;9.90;92.90;;;;;;5052183;28;20048;-83
2021/05/28 05:51:46;;;;;;;15.02;6.68;;;9.90;92.80;;;;;;5052419;28;20049;-83
2021/05/28 05:54:12;;;;;;;12.80;5.18;;;10.00;92.90;;;;;;5051162;28;20053;-84
2021/05/28 05:56:38;;;;;;;8.73;4.50;;;10.00;92.90;;;;;;5051678;28;20484;-84
2021/05/28 05:59:04;;;;;;;10.57;4.97;;;10.00;92.70;;;;;;5051968;28;20045;-83
2021/05/28 06:01:42;;;;;;;14.52;6.30;;;10.10;92.70;;;;;;5051291;28;20052;-84
2021/05/28 06:04:10;;;;;;;11.77;5.72;;;10.10;92.90;;;;;;5051685;28;20132;-83
2021/05/28 06:06:40;;;;;;;10.10;5.20;;;10.10;92.90;;;;;;5052032;28;20087;-84
2021/05/28 06:09:09;;;;;;;16.45;6.32;;;10.20;92.90;;;;;;5050762;28;20094;-84
2021/05/28 06:11:34;;;;;;;16.00;6.03;;;10.20;92.90;;;;;;5054169;28;20059;-84
2021/05/28 06:14:00;;;;;;;15.40;6.90;;;10.20;92.90;;;;;;5055653;28;20041;-84
2021/05/28 06:16:26;;;;;;;19.25;6.72;;;10.30;93.10;;;;;;5056024;28;20057;-84
2021/05/28 06:18:55;;;;;;;16.42;6.50;;;10.30;93.10;;;;;;5055885;28;20120;-84
2021/05/28 06:21:23;;;;;;;16.80;6.00;;;10.40;93.20;;;;;;5057478;28;20044;-85
2021/05/28 06:23:49;;;;;;;16.27;6.50;;;10.40;93.20;;;;;;5055771;28;20119;-84
2021/05/28 06:26:15;;;;;;;20.45;7.00;;;10.40;93.20;;;;;;5061117;28;20072;-84
2021/05/28 06:28:43;;;;;;;14.82;6.15;;;10.50;93.20;;;;;;5055429;28;20499;-84
2021/05/28 06:31:09;;;;;;;16.77;7.10;;;10.60;93.30;;;;;;5055821;28;20084;-85
2021/05/28 06:33:35;;;;;;;12.93;6.53;;;10.70;93.30;;;;;;5059265;28;20041;-84
2021/05/28 06:36:00;;;;;;;16.80;6.45;;;10.70;93.30;;;;;;5056647;28;20171;-85
2021/05/28 06:38:33;;;;;;;16.40;6.55;;;10.80;93.30;;;;;;5054473;28;20056;-84
2021/05/28 06:41:03;;;;;;;15.93;7.10;;;10.80;93.20;;;;;;5053670;28;20556;-85
2021/05/28 06:43:29;;;;;;;19.20;7.65;;;10.90;93.10;;;;;;5054563;28;20141;-85
2021/05/28 06:49:55;;;;;;;16.90;6.78;;;11.00;93.30;;;;;;5042963;28;20044;-89
2021/05/28 06:52:49;;;;;;;17.95;7.03;;;11.10;93.20;;;;;;5055604;28;20049;-91
2021/05/28 06:55:15;;;;;;;13.88;6.25;;;11.10;93.10;;;;;;5045669;28;20049;-89
2021/05/28 06:58:00;;;;;;;17.55;6.55;;;11.20;93.00;;;;;;5054300;28;20198;-90
2021/05/28 07:03:26;;;;;;;15.65;6.78;;;11.30;92.90;;;;;;5055494;22;20053;-93
2021/05/28 07:06:08;;;;;;;15.68;7.50;;;11.40;92.90;;;;;;5039475;28;20100;-92
2021/05/28 07:09:40;;;;;;;17.73;7.50;;;11.40;92.90;;;;;;5054681;28;20049;-91
2021/05/28 07:12:47;;;;;;;14.05;7.00;;;11.40;92.80;;;;;;5035668;28;20049;-95
2021/05/28 07:15:25;;;;;;;12.80;6.50;;;11.60;92.80;;;;;;5048912;28;20175;-93
2021/05/28 07:18:07;;;;;;;14.70;7.15;;;11.60;92.70;;;;;;5037527;28;20096;-96
2021/05/28 07:21:09;;;;;;;13.57;6.95;;;11.60;92.70;;;;;;5033605;28;20041;-93
2021/05/28 07:26:12;;;;;;;15.77;6.82;;;11.80;92.60;;;;;;5442640;22;20059;-91
2021/05/28 07:28:43;;;;;;;20.20;7.05;;;11.80;92.60;;;;;;5076432;28;20044;-91
2021/05/28 07:31:11;;;;;;;12.98;6.38;;;11.90;92.50;;;;;;5075563;28;20044;-91
2021/05/28 07:33:58;;;;;;;11.05;6.35;;;11.90;92.40;;;;;;5075621;28;20044;-92
2021/05/28 07:36:24;;;;;;;12.93;6.53;;;12.00;92.50;;;;;;5075910;28;20466;-91
2021/05/28 07:43:04;;;;;;;10.80;5.50;;;12.10;92.50;;;;;;5047420;28;20051;-91
2021/05/28 07:46:03;;;;;;;;;;;;;;;;;;;;;
2021/05/28 07:49:12;;;;;;;;;;;;;;;;;;;;;
2021/05/28 08:02:53;;;;;;;12.82;5.70;;;12.90;92.00;;;;;;5054371;28;20041;-92
2021/05/28 08:05:51;;;;;;;11.00;5.75;;;13.00;91.70;;;;;;4985856;28;20467;-92
2021/05/28 08:08:48;;;;;;;15.40;5.70;;;13.20;91.60;;;;;;5054256;28;20057;-91
2021/05/28 08:12:10;;;;;;;10.70;4.85;;;13.20;91.40;;;;;;5030767;28;20053;-92
2021/05/28 08:14:54;;;;;;;10.73;5.13;;;13.30;90.80;;;;;;4897151;29;20597;-89
2021/05/28 08:17:20;;;;;;;10.27;5.13;;;13.40;90.70;;;;;;4942648;29;20148;-89
2021/05/28 08:20:07;;;;;;;11.35;5.10;;;13.50;90.70;;;;;;5029585;28;20049;-94
2021/05/28 08:22:36;;;;;;;13.35;4.82;;;13.60;90.70;;;;;;5053232;28;20091;-93
2021/05/28 08:25:18;;;;;;;12.20;4.57;;;13.60;90.30;;;;;;5053788;28;20049;-93
2021/05/28 08:27:47;;;;;;;11.63;4.68;;;13.70;90.00;;;;;;5037523;28;20076;-93
2021/05/28 08:30:27;;;;;;;10.25;4.82;;;13.70;90.00;;;;;;5048127;28;20444;-94
2021/05/28 08:32:56;;;;;;;7.88;4.22;;;13.80;89.70;;;;;;5053928;28;20049;-92
2021/05/28 08:35:22;;;;;;;9.20;4.30;;;13.90;89.60;;;;;;5054152;28;20135;-90
2021/05/28 08:41:09;;;;;;;9.40;5.10;;;14.00;89.60;;;;;;5052804;28;20389;-84
2021/05/28 08:43:43;;;;;;;8.63;4.47;;;14.10;90.30;;;;;;5052945;28;20106;-85
2021/05/28 08:46:13;;;;;;;12.07;4.07;;;14.10;90.30;;;;;;5054215;28;20045;-85
2021/05/28 08:48:48;;;;;;;8.60;4.57;;;14.20;90.10;;;;;;5053335;28;20493;-84
2021/05/28 08:51:29;;;;;;;11.57;4.60;;;14.30;89.70;;;;;;5052243;28;20051;-84
2021/05/28 08:53:58;;;;;;;9.02;4.68;;;14.40;89.30;;;;;;5053076;28;20061;-84
2021/05/28 08:56:23;;;;;;;9.93;4.75;;;14.50;89.50;;;;;;5053242;28;20049;-85
2021/05/28 08:58:49;;;;;;;12.00;4.50;;;14.60;89.00;;;;;;5052406;28;20110;-85
2021/05/28 09:01:20;;;;;;;9.02;4.38;;;14.60;89.10;;;;;;5052646;28;20408;-84
2021/05/28 09:04:00;;;;;;;9.43;4.38;;;14.70;89.10;;;;;;5052247;28;20045;-85
2021/05/28 09:06:54;;;;;;;9.25;4.20;;;14.80;88.50;;;;;;5053150;28;20405;-84
2021/05/28 09:09:23;;;;;;;9.93;4.55;;;14.80;88.00;;;;;;5053184;28;20049;-84
2021/05/28 09:11:57;;;;;;;8.07;3.90;;;14.90;87.50;;;;;;5052021;28;20045;-84
2021/05/28 09:14:38;;;;;;;7.88;4.13;;;14.90;87.90;;;;;;5053301;28;20501;-84
2021/05/28 09:17:06;;;;;;;8.65;3.70;;;15.00;88.40;;;;;;5052811;28;20130;-84
2021/05/28 09:20:01;;;;;;;;;;;;;;;;;;;;;
2021/05/28 09:22:39;;;;;;;10.48;4.00;;;15.20;87.70;;;;;;5048640;28;20065;-83
2021/05/28 09:25:10;;;;;;;11.90;4.03;;;15.30;86.80;;;;;;5051931;28;20040;-84
2021/05/28 09:27:37;;;;;;;7.50;3.47;;;15.30;86.70;;;;;;5052606;28;20489;-85
2021/05/28 09:30:17;;;;;;;9.43;4.10;;;15.40;87.40;;;;;;5052711;28;20053;-85
2021/05/28 09:32:46;;;;;;;7.82;3.97;;;15.50;87.30;;;;;;5051828;28;20139;-85
2021/05/28 09:35:21;;;;;;;10.27;4.00;;;15.60;87.80;;;;;;5052405;28;20488;-85
2021/05/28 09:37:52;;;;;;;8.73;3.80;;;15.70;86.70;;;;;;5052660;28;20049;-84
2021/05/28 09:40:27;;;;;;;10.32;4.00;;;15.70;85.70;;;;;;5051877;28;20049;-85
2021/05/28 09:43:01;;;;;;;7.65;3.72;;;15.70;86.10;;;;;;5052345;28;20053;-84
2021/05/28 09:45:30;;;;;;;7.40;3.67;;;15.80;86.20;;;;;;5052622;28;20128;-84
2021/05/28 09:48:01;;;;;;;10.43;3.70;;;15.90;85.70;;;;;;5055416;28;20060;-85
2021/05/28 09:50:33;;;;;;;9.75;4.22;;;15.90;84.80;;;;;;5056772;28;20044;-84
2021/05/28 09:53:04;;;;;;;7.25;3.88;;;15.90;84.20;;;;;;5055590;28;20049;-84
2021/05/28 09:55:32;;;;;;;8.27;3.70;;;16.00;85.10;;;;;;5056569;28;20045;-84
2021/05/28 09:57:58;;;;;;;8.57;3.63;;;16.00;84.00;;;;;;5056073;28;20057;-85
2021/05/28 10:00:32;;;;;;;7.65;3.50;;;16.00;85.40;;;;;;5055618;28;20147;-84
2021/05/28 10:03:09;;;;;;;6.40;2.80;;;16.10;84.40;;;;;;5056206;28;20049;-85
2021/05/28 10:05:40;;;;;;;8.38;3.35;;;16.10;83.50;;;;;;5056467;28;20044;-85
2021/05/28 10:08:11;;;;;;;8.40;3.47;;;16.10;82.20;;;;;;5055333;28;20603;-86
2021/05/28 10:10:39;;;;;;;6.80;3.40;;;16.10;84.60;;;;;;5056155;28;20048;-85
2021/05/28 10:13:12;;;;;;;8.77;3.80;;;16.20;86.60;;;;;;5056130;28;20049;-85
2021/05/28 10:15:44;;;;;;;7.80;3.35;;;16.30;87.90;;;;;;5055504;28;20114;-85
2021/05/28 10:18:11;;;;;;;11.40;3.70;;;16.30;87.10;;;;;;5056016;28;20076;-85
2021/05/28 10:20:39;;;;;;;9.45;3.70;;;16.40;85.70;;;;;;5056164;28;20068;-86
2021/05/28 10:23:07;;;;;;;8.68;3.50;;;16.40;84.10;;;;;;5055132;28;20057;-85
2021/05/28 10:25:37;;;;;;;7.40;3.75;;;16.50;84.00;;;;;;5055834;28;20553;-86
2021/05/28 10:28:06;;;;;;;7.03;3.78;;;16.50;85.70;;;;;;5055040;28;20044;-84
2021/05/28 10:30:41;;;;;;;7.38;3.20;;;16.60;85.90;;;;;;5055931;28;20170;-85
2021/05/28 10:33:13;;;;;;;6.57;3.60;;;16.60;85.70;;;;;;5055647;28;20067;-85
2021/05/28 10:35:44;;;;;;;5.57;2.97;;;16.70;87.70;;;;;;5055069;28;20053;-85
2021/05/28 10:38:47;;;;;;;6.40;2.70;;;16.80;87.40;;;;;;5055687;28;20313;-85
2021/05/28 10:41:12;;;;;;;9.65;3.15;;;16.90;84.20;;;;;;5055425;28;20126;-85
2021/05/28 10:44:02;;;;;;;9.75;2.70;;;16.90;84.00;;;;;;5054904;28;20080;-85
2021/05/28 10:46:28;;;;;;;6.10;2.58;;;16.90;82.20;;;;;;5055836;28;20049;-85
2021/05/28 10:49:07;;;;;;;6.95;2.60;;;17.00;81.20;;;;;;5055525;28;20183;-86
2021/05/28 10:51:32;;;;;;;8.23;2.90;;;17.10;82.60;;;;;;5055561;28;20094;-85
2021/05/28 10:53:58;;;;;;;7.78;3.05;;;17.20;83.50;;;;;;5055325;28;20139;-85
2021/05/28 10:56:35;;;;;;;8.15;3.00;;;17.20;81.30;;;;;;5054495;28;20048;-85
2021/05/28 10:59:09;;;;;;;8.02;2.58;;;17.20;79.90;;;;;;5055413;28;20049;-85
2021/05/28 11:01:53;;;;;;;7.35;2.83;;;17.30;79.50;;;;;;5055262;28;20124;-85
2021/05/28 11:04:25;;;;;;;6.35;2.85;;;17.30;82.00;;;;;;5054507;28;20052;-86
2021/05/28 11:06:58;;;;;;;6.88;2.65;;;17.40;81.60;;;;;;5055176;28;20060;-85
2021/05/28 11:09:50;;;;;;;5.30;2.45;;;17.50;80.00;;;;;;5055400;28;20135;-84
2021/05/28 11:12:25;;;;;;;8.55;2.28;;;17.50;79.60;;;;;;5054364;28;20081;-85
2021/05/28 11:15:09;;;;;;;5.63;2.80;;;17.60;79.20;;;;;;5055122;28;20075;-85
2021/05/28 11:17:51;;;;;;;5.47;2.30;;;17.60;81.90;;;;;;5054280;28;20420;-86
2021/05/28 11:21:13;;;;;;;5.40;2.40;;;17.70;78.80;;;;;;5055194;28;20053;-85
2021/05/28 11:23:47;;;;;;;6.43;2.17;;;17.80;82.50;;;;;;5054435;28;20080;-82
2021/05/28 11:26:27;;;;;;;6.60;2.60;;;17.90;79.90;;;;;;5053988;28;20049;-81
2021/05/28 11:28:58;;;;;;;5.90;2.50;;;18.00;80.10;;;;;;5054661;28;20147;-82
2021/05/28 11:31:25;;;;;;;4.43;2.13;;;18.10;80.40;;;;;;5053891;28;20493;-82
2021/05/28 11:33:59;;;;;;;6.03;2.50;;;18.10;78.50;;;;;;5054544;28;20045;-82
2021/05/28 11:36:29;;;;;;;5.65;2.25;;;18.30;80.90;;;;;;5054604;28;20057;-89
2021/05/28 11:38:57;;;;;;;6.13;2.35;;;18.40;78.40;;;;;;5052699;28;20055;-81
2021/05/28 11:42:01;;;;;;;6.15;2.30;;;18.40;75.20;;;;;;5054064;28;20052;-83
2021/05/28 11:44:29;;;;;;;7.97;2.47;;;18.50;74.90;;;;;;5053955;28;20045;-81
2021/05/28 11:46:58;;;;;;;7.15;2.05;;;18.50;76.80;;;;;;5052836;28;20059;-82
2021/05/28 11:49:25;;;;;;;7.22;2.10;;;18.40;73.40;;;;;;5054243;28;20052;-83
2021/05/28 11:52:17;;;;;;;6.03;2.20;;;18.40;75.10;;;;;;5053907;28;20138;-84
2021/05/28 11:54:43;;;;;;;7.00;2.30;;;18.40;77.70;;;;;;5048703;28;20088;-82
2021/05/28 11:57:17;;;;;;;5.15;2.22;;;18.40;76.10;;;;;;5053127;28;20081;-83
2021/05/28 11:59:55;;;;;;;4.32;2.00;;;18.50;77.20;;;;;;5053642;28;20363;-82
2021/05/28 12:02:42;;;;;;;4.65;1.90;;;18.60;76.60;;;;;;5053835;28;20049;-83
2021/05/28 12:05:21;;;;;;;5.68;1.95;;;18.50;75.30;;;;;;5053158;28;20059;-81
2021/05/28 12:07:47;;;;;;;4.28;1.80;;;18.60;75.90;;;;;;5053034;28;20485;-81
2021/05/28 12:10:14;;;;;;;5.85;2.08;;;18.60;76.50;;;;;;5052722;28;20566;-83
2021/05/28 12:12:56;;;;;;;4.70;1.27;;;18.70;74.40;;;;;;5053676;28;20045;-82
2021/05/28 12:15:24;;;;;;;5.05;2.10;;;18.70;71.90;;;;;;5053104;28;20124;-81
2021/05/28 12:17:51;;;;;;;3.90;1.40;;;18.80;75.10;;;;;;5053786;28;20053;-82
2021/05/28 12:20:23;;;;;;;5.80;1.40;;;18.80;72.50;;;;;;5035401;28;20437;-82
2021/05/28 12:23:02;;;;;;;4.85;1.40;;;18.80;70.00;;;;;;5052491;28;20629;-82
2021/05/28 12:25:29;;;;;;;5.78;1.80;;;18.80;71.40;;;;;;5053110;28;20119;-82
2021/05/28 12:28:10;;;;;;;3.92;1.60;;;18.70;71.40;;;;;;5039869;28;20054;-81
2021/05/28 12:30:36;;;;;;;5.57;1.67;;;18.70;68.30;;;;;;5052345;28;20044;-81
2021/05/28 12:33:02;;;;;;;4.30;1.70;;;18.80;71.20;;;;;;5034469;28;20049;-82
2021/05/28 12:35:28;;;;;;;4.85;1.83;;;18.80;69.70;;;;;;5045487;28;20132;-81
2021/05/28 12:38:02;;;;;;;6.72;1.90;;;18.80;70.10;;;;;;5052532;28;20048;-82
2021/05/28 12:40:28;;;;;;;5.20;1.70;;;18.70;70.60;;;;;;5053047;28;20077;-81
2021/05/28 12:42:55;;;;;;;3.92;1.60;;;18.70;70.50;;;;;;5052047;28;20049;-81
2021/05/28 12:45:30;;;;;;;6.53;1.92;;;18.70;70.70;;;;;;5052121;28;20048;-82
2021/05/28 12:47:56;;;;;;;4.20;1.52;;;18.70;69.70;;;;;;5053139;28;20421;-82
2021/05/28 12:50:33;;;;;;;4.55;1.60;;;18.70;73.30;;;;;;5051847;28;20049;-81
2021/05/28 12:53:20;;;;;;;4.45;1.60;;;18.70;71.40;;;;;;5052336;28;20049;-81
2021/05/28 12:55:55;;;;;;;5.57;1.80;;;18.60;65.40;;;;;;5046910;28;20115;-81
2021/05/28 12:58:29;;;;;;;4.10;1.70;;;18.60;70.10;;;;;;5052547;28;20064;-81
2021/05/28 13:01:01;;;;;;;3.47;1.55;;;18.50;69.90;;;;;;5052139;28;20051;-82
2021/05/28 13:03:34;;;;;;;4.18;1.40;;;18.50;69.50;;;;;;5051853;28;20057;-82
2021/05/28 13:05:59;;;;;;;5.80;1.55;;;18.50;68.20;;;;;;5052280;28;20065;-82
2021/05/28 13:08:32;;;;;;;4.13;1.65;;;18.40;70.80;;;;;;5052399;28;20098;-81
2021/05/28 13:10:58;;;;;;;5.17;1.57;;;18.40;68.10;;;;;;5051613;28;20055;-82
2021/05/28 13:13:25;;;;;;;5.05;1.80;;;18.40;70.40;;;;;;5052502;28;20079;-82
2021/05/28 13:15:51;;;;;;;3.90;1.73;;;18.40;68.50;;;;;;5052717;28;20053;-82
2021/05/28 13:18:17;;;;;;;4.90;1.70;;;18.40;71.20;;;;;;5051894;28;20072;-82
2021/05/28 13:20:45;;;;;;;6.38;1.40;;;18.50;72.80;;;;;;5052011;28;20045;-82
2021/05/28 13:23:22;;;;;;;3.50;1.60;;;18.50;70.80;;;;;;5052122;28;20239;-81
2021/05/28 13:25:48;;;;;;;5.50;1.67;;;18.50;70.70;;;;;;5051979;28;20056;-82
2021/05/28 13:28:16;;;;;;;3.33;1.35;;;18.60;70.40;;;;;;5051591;28;20052;-81
2021/05/28 13:30:43;;;;;;;3.95;1.35;;;18.60;70.20;;;;;;5052406;28;20041;-82
2021/05/28 13:33:28;;;;;;;5.38;1.83;;;18.70;70.10;;;;;;5051034;28;20041;-82